createdAt,value
2019-03-16T00:04:01.161Z,92.01
2019-03-16T00:08:55.024Z,92.01
2019-03-16T00:13:48.889Z,91.80
2019-03-16T00:18:43.055Z,89.25
2019-03-16T00:23:36.988Z,89.72
2019-03-16T00:28:30.841Z,89.48
2019-03-16T00:33:24.736Z,86.84
2019-03-16T00:38:18.595Z,85.41
2019-03-16T00:43:12.441Z,84.50
2019-03-16T00:48:06.292Z,86.17
2019-03-16T00:53:00.318Z,86.93
2019-03-16T00:57:54.177Z,86.12
2019-03-16T01:02:48.052Z,85.99
2019-03-16T01:07:42.182Z,85.85
2019-03-16T01:12:36.347Z,85.49
2019-03-16T01:17:30.269Z,86.12
2019-03-16T01:22:24.248Z,86.71
2019-03-16T01:27:18.142Z,85.96
2019-03-16T01:32:12.113Z,83.57
2019-03-16T01:37:06.373Z,84.10
2019-03-16T01:42:00.228Z,84.70
2019-03-16T01:46:54.403Z,84.34
2019-03-16T01:51:48.254Z,84.81
2019-03-16T01:56:42.105Z,85.10
2019-03-16T02:01:36.093Z,85.58
2019-03-16T02:06:29.964Z,85.65
2019-03-16T02:11:23.895Z,87.09
2019-03-16T02:16:17.755Z,86.77
2019-03-16T02:21:11.654Z,86.96
2019-03-16T02:26:05.493Z,87.19
2019-03-16T02:30:59.364Z,86.99
2019-03-16T02:35:53.241Z,86.42
2019-03-16T02:40:47.088Z,86.56
2019-03-16T02:45:40.965Z,87.21
2019-03-16T02:50:34.859Z,87.86
2019-03-16T02:55:28.760Z,88.35
2019-03-16T03:00:22.746Z,88.38
2019-03-16T03:05:16.579Z,88.77
2019-03-16T03:10:12.726Z,89.04
2019-03-16T03:15:07.573Z,89.43
2019-03-16T03:20:01.430Z,89.81
2019-03-16T03:24:55.338Z,90.24
2019-03-16T03:29:49.158Z,90.42
2019-03-16T03:34:43.004Z,90.85
2019-03-16T03:39:36.869Z,91.28
2019-03-16T03:44:30.732Z,91.46
2019-03-16T03:49:24.567Z,92.03
2019-03-16T03:54:18.445Z,92.42
2019-03-16T03:59:12.378Z,92.72
2019-03-16T04:04:14.964Z,92.76
2019-03-16T04:09:03.717Z,92.94
2019-03-16T04:13:57.594Z,93.36
2019-03-16T04:18:52.115Z,93.52
2019-03-16T04:23:46.034Z,93.51
2019-03-16T04:28:39.893Z,93.67
2019-03-16T04:33:33.733Z,93.78
2019-03-16T04:38:27.598Z,93.83
2019-03-16T04:43:21.555Z,94.46
2019-03-16T04:48:15.438Z,94.82
2019-03-16T04:53:09.275Z,94.87
2019-03-16T04:58:03.145Z,94.71
2019-03-16T05:02:56.996Z,94.85
2019-03-16T05:07:50.850Z,95.31
2019-03-16T05:12:44.693Z,95.79
2019-03-16T05:17:38.533Z,96.10
2019-03-16T05:22:32.394Z,96.35
2019-03-16T05:27:26.286Z,96.56
2019-03-16T05:32:20.136Z,96.73
2019-03-16T05:37:13.986Z,96.82
2019-03-16T05:42:07.829Z,96.87
2019-03-16T05:47:01.729Z,96.85
2019-03-16T05:51:55.593Z,96.62
2019-03-16T05:56:49.478Z,96.53
2019-03-16T06:01:43.313Z,96.61
2019-03-16T06:06:37.169Z,96.59
2019-03-16T06:11:31.012Z,96.59
2019-03-16T06:16:24.959Z,96.51
2019-03-16T06:21:18.789Z,96.42
2019-03-16T06:26:12.688Z,96.36
2019-03-16T06:31:06.621Z,96.36
2019-03-16T06:36:00.480Z,96.58
2019-03-16T06:40:54.360Z,96.42
2019-03-16T06:45:48.217Z,96.27
2019-03-16T06:50:42.069Z,96.07
2019-03-16T06:55:35.936Z,96.34
2019-03-16T07:00:29.901Z,96.34
2019-03-16T07:05:37.260Z,96.53
2019-03-16T07:10:19.508Z,96.50
2019-03-16T07:15:14.457Z,96.25
2019-03-16T07:20:10.916Z,96.23
2019-03-16T07:25:05.532Z,96.16
2019-03-16T07:29:59.398Z,95.27
2019-03-16T07:34:53.240Z,93.84
2019-03-16T07:39:47.297Z,94.08
2019-03-16T07:44:41.145Z,92.74
2019-03-16T07:49:35.019Z,90.27
2019-03-16T07:54:31.251Z,88.81
2019-03-16T07:59:24.691Z,86.95
2019-03-16T08:04:18.556Z,87.10
2019-03-16T08:09:12.444Z,86.37
2019-03-16T08:14:06.266Z,86.98
2019-03-16T08:19:00.124Z,85.57
2019-03-16T08:23:54.023Z,86.24
2019-03-16T08:28:47.982Z,86.40
2019-03-16T08:33:41.833Z,85.41
2019-03-16T08:38:35.749Z,84.05
2019-03-16T08:43:29.637Z,82.04
2019-03-16T08:48:23.650Z,82.22
2019-03-16T08:53:17.587Z,82.15
2019-03-16T08:58:11.537Z,83.22
2019-03-16T09:03:05.542Z,84.26
2019-03-16T09:07:59.425Z,83.48
2019-03-16T09:12:55.187Z,83.55
2019-03-16T09:17:49.050Z,83.83
2019-03-16T09:22:43.041Z,83.28
2019-03-16T09:27:36.992Z,83.14
2019-03-16T09:32:30.853Z,80.29
2019-03-16T09:37:24.826Z,76.40
2019-03-16T09:42:18.695Z,73.86
2019-03-16T09:47:12.678Z,71.81
2019-03-16T09:52:06.583Z,71.31
2019-03-16T09:57:01.839Z,70.07
2019-03-16T10:01:55.934Z,70.71
2019-03-16T10:06:49.787Z,70.17
2019-03-16T10:11:43.713Z,70.70
2019-03-16T10:16:37.667Z,71.74
2019-03-16T10:21:31.540Z,71.88
2019-03-16T10:26:25.572Z,72.19
2019-03-16T10:31:19.450Z,72.72
2019-03-16T10:36:13.289Z,72.87
2019-03-16T10:41:07.183Z,72.43
2019-03-16T10:46:01.045Z,72.91
2019-03-16T10:50:54.936Z,71.31
2019-03-16T10:55:48.809Z,72.76
2019-03-16T11:00:42.692Z,72.84
2019-03-16T11:05:36.570Z,71.26
2019-03-16T11:10:30.466Z,70.98
2019-03-16T11:15:24.388Z,70.00
2019-03-16T11:20:18.416Z,65.92
2019-03-16T11:25:15.012Z,64.09
2019-03-16T11:30:13.554Z,64.29
2019-03-16T11:35:09.123Z,64.86
2019-03-16T11:40:06.817Z,64.25
2019-03-16T11:45:00.696Z,65.09
2019-03-16T11:49:54.601Z,64.06
2019-03-16T11:54:48.525Z,65.42
2019-03-16T11:59:42.406Z,66.78
2019-03-16T12:04:36.302Z,66.86
2019-03-16T12:09:30.176Z,65.29
2019-03-16T12:14:24.037Z,64.33
2019-03-16T12:19:17.940Z,63.56
2019-03-16T12:24:11.981Z,65.01
2019-03-16T12:29:05.846Z,65.01
2019-03-16T12:33:59.724Z,65.67
2019-03-16T12:38:53.698Z,66.21
2019-03-16T12:43:47.583Z,67.05
2019-03-16T12:48:41.459Z,66.89
2019-03-16T12:53:35.451Z,67.04
2019-03-16T12:58:29.463Z,66.68
2019-03-16T13:03:23.326Z,67.94
2019-03-16T13:08:17.234Z,67.90
2019-03-16T13:13:11.250Z,67.12
2019-03-16T13:18:05.180Z,67.29
2019-03-16T13:22:59.345Z,67.44
2019-03-16T13:27:53.227Z,67.90
2019-03-16T13:32:47.227Z,66.70
2019-03-16T13:37:41.305Z,67.33
2019-03-16T13:42:35.299Z,67.16
2019-03-16T13:47:29.184Z,67.32
2019-03-16T13:52:23.133Z,66.23
2019-03-16T13:57:16.978Z,66.84
2019-03-16T14:02:10.863Z,66.70
2019-03-16T14:07:05.310Z,66.70
2019-03-16T14:11:59.288Z,65.88
2019-03-16T14:16:53.150Z,65.79
2019-03-16T14:21:47.017Z,65.90
2019-03-16T14:26:42.672Z,64.75
2019-03-16T14:31:36.692Z,63.44
2019-03-16T14:36:30.592Z,62.62
2019-03-16T14:41:24.493Z,61.72
2019-03-16T14:46:18.881Z,60.13
2019-03-16T14:51:12.764Z,61.31
2019-03-16T14:56:06.656Z,61.87
2019-03-16T15:01:00.883Z,62.70
2019-03-16T15:05:54.830Z,62.42
2019-03-16T15:10:48.968Z,62.31
2019-03-16T15:15:42.937Z,62.35
2019-03-16T15:20:36.813Z,62.15
2019-03-16T15:25:30.885Z,61.92
2019-03-16T15:30:24.735Z,61.63
2019-03-16T15:35:18.618Z,62.56
2019-03-16T15:40:13.694Z,63.39
2019-03-16T15:45:28.627Z,63.83
2019-03-16T15:50:22.513Z,62.92
2019-03-16T15:55:16.612Z,61.95
2019-03-16T16:00:15.081Z,62.58
2019-03-16T16:05:09.441Z,62.60
2019-03-16T16:10:08.712Z,62.97
2019-03-16T16:15:05.492Z,63.05
2019-03-16T16:19:59.576Z,63.21
2019-03-16T16:24:53.617Z,62.71
2019-03-16T16:29:47.495Z,62.43
2019-03-16T16:34:41.530Z,62.44
2019-03-16T16:39:35.436Z,62.68
2019-03-16T16:44:29.537Z,63.50
2019-03-16T16:49:23.417Z,62.98
2019-03-16T16:54:17.422Z,63.42
2019-03-16T16:59:11.296Z,63.35
2019-03-16T17:04:05.297Z,62.63
2019-03-16T17:08:59.165Z,62.57
2019-03-16T17:13:53.136Z,62.37
2019-03-16T17:18:47.127Z,62.67
2019-03-16T17:23:41.044Z,62.43
2019-03-16T17:28:35.167Z,62.65
2019-03-16T17:33:29.148Z,62.80
2019-03-16T17:38:23.021Z,62.89
2019-03-16T17:43:17.036Z,62.72
2019-03-16T17:48:11.068Z,63.33
2019-03-16T17:53:04.971Z,62.79
2019-03-16T17:57:58.822Z,63.31
2019-03-16T18:02:52.880Z,62.85
2019-03-16T18:07:46.719Z,62.48
2019-03-16T18:12:40.588Z,62.62
2019-03-16T18:17:34.485Z,62.75
2019-03-16T18:22:28.377Z,63.04
2019-03-16T18:27:22.278Z,62.75
2019-03-16T18:32:16.306Z,63.19
2019-03-16T18:37:10.274Z,63.01
2019-03-16T18:42:04.222Z,63.84
2019-03-16T18:46:58.204Z,63.48
2019-03-16T18:51:52.114Z,63.22
2019-03-16T18:56:46.114Z,63.15
2019-03-16T19:01:40.018Z,63.53
2019-03-16T19:06:33.896Z,63.31
2019-03-16T19:11:27.928Z,63.75
2019-03-16T19:16:21.801Z,63.79
2019-03-16T19:21:15.684Z,64.02
2019-03-16T19:26:09.705Z,64.30
2019-03-16T19:31:03.816Z,64.38
2019-03-16T19:35:57.780Z,64.42
2019-03-16T19:40:51.784Z,64.64
2019-03-16T19:45:45.645Z,64.80
2019-03-16T19:50:39.509Z,64.77
2019-03-16T19:55:33.498Z,64.80
2019-03-16T20:00:27.365Z,64.84
2019-03-16T20:05:21.981Z,64.89
2019-03-16T20:10:19.899Z,65.11
2019-03-16T20:15:14.413Z,65.05
2019-03-16T20:20:09.986Z,65.54
2019-03-16T20:25:04.324Z,65.81
2019-03-16T20:29:58.423Z,66.21
2019-03-16T20:34:52.340Z,66.22
2019-03-16T20:39:46.340Z,66.41
2019-03-16T20:44:40.364Z,66.38
2019-03-16T20:49:34.382Z,66.80
2019-03-16T20:54:28.392Z,66.48
2019-03-16T20:59:22.310Z,66.19
2019-03-16T21:04:16.213Z,66.37
2019-03-16T21:09:10.156Z,66.74
2019-03-16T21:14:04.253Z,66.92
2019-03-16T21:20:26.413Z,67.24
2019-03-16T21:25:20.569Z,67.13
2019-03-16T21:30:15.955Z,67.85
2019-03-16T21:35:09.995Z,67.58
2019-03-16T21:40:09.540Z,67.63
2019-03-16T21:45:06.116Z,67.72
2019-03-16T21:50:00.359Z,67.72
2019-03-16T21:54:54.629Z,67.95
2019-03-16T21:59:48.758Z,68.13
2019-03-16T22:04:42.650Z,68.10
2019-03-16T22:09:36.753Z,68.14
2019-03-16T22:14:30.623Z,68.16
2019-03-16T22:19:24.639Z,68.11
2019-03-16T22:24:18.548Z,68.16
2019-03-16T22:29:12.479Z,68.11
2019-03-16T22:34:06.444Z,68.46
2019-03-16T22:39:00.323Z,67.90
2019-03-16T22:43:54.269Z,67.65
2019-03-16T22:48:48.239Z,67.55
2019-03-16T22:53:42.099Z,67.49
2019-03-16T22:58:36.097Z,67.30
2019-03-16T23:03:30.046Z,66.97
2019-03-16T23:08:23.931Z,66.82
2019-03-16T23:13:17.910Z,66.10
2019-03-16T23:21:32.835Z,66.25
2019-03-16T23:26:38.043Z,65.99
2019-03-16T23:31:22.591Z,65.60
2019-03-16T23:36:16.457Z,65.95
2019-03-16T23:41:10.462Z,65.25
2019-03-16T23:46:04.324Z,65.24
2019-03-16T23:50:58.313Z,65.09
2019-03-16T23:55:52.241Z,65.26
